This is the latest recevied weather packets stored in our database for station/object KE2HEH. If no packets are shown the sender has not sent any weather packets the latest 10 day(s).
| Time | Temp. | Humidity | Pressure | Rain* | Wind** | Luminosity | Snow |
|---|---|---|---|---|---|---|---|
| 1778154800 | 10.56° C | 89% | 1011.4 hPa | 0 mm | - | 47 W/m² | - |
| 1778154497 | 10.56° C | 89% | 1011.1 hPa | 0 mm | - | 63 W/m² | - |
| 1778154194 | 10.56° C | 90% | 1011.3 hPa | 0 mm | - | 57 W/m² | - |
| 1778153891 | 10.56° C | 90% | 1011.3 hPa | 0 mm | - | 54 W/m² | - |
| 1778153588 | 10.56° C | 90% | 1011.2 hPa | 0 mm | - | 61 W/m² | - |
| 1778153286 | 10.56° C | 91% | 1010.8 hPa | 0 mm | - | 71 W/m² | - |
| 1778152982 | 10.56° C | 91% | 1010.6 hPa | 0 mm | - | 72 W/m² | - |
| 1778152681 | 10.56° C | 91% | 1011 hPa | 0 mm | - | 55 W/m² | - |
| 1778152376 | 10.56° C | 91% | 1010.8 hPa | 0 mm | - | 71 W/m² | - |
| 1778152073 | 10.56° C | 91% | 1010.9 hPa | 0 mm | - | 26 W/m² | - |
| 1778151769 | 10.56° C | 92% | 1011.3 hPa | 0 mm | - | 23 W/m² | - |
| 1778151467 | 10.56° C | 92% | 1011 hPa | 0 mm | - | 31 W/m² | - |
| 1778151162 | 10.56° C | 92% | 1010.8 hPa | 0 mm | - | 31 W/m² | - |
| 1778150860 | 10.56° C | 92% | 1010.9 hPa | 0 mm | - | 21 W/m² | - |
| 1778150556 | 10.56° C | 92% | 1010.5 hPa | 0 mm | - | 22 W/m² | - |
| 1778150252 | 10.56° C | 92% | 1010.7 hPa | 0 mm | - | 6 W/m² | - |
| 1778149949 | 10.56° C | 92% | 1010.7 hPa | 0 mm | - | 18 W/m² | - |
| 1778149645 | 10.56° C | 92% | 1010.6 hPa | 0 mm | - | 7 W/m² | - |
| 1778149342 | 10.56° C | 92% | 1010.7 hPa | 0 mm | - | 5 W/m² | - |
| 1778149038 | 10.56° C | 92% | 1010.6 hPa | 0 mm | - | 3 W/m² | - |
| 1778148733 | 10° C | 92% | 1010.4 hPa | 1.27 mm | - | 1 W/m² | - |
| 1778148431 | 10° C | 92% | 1010.3 hPa | 1.27 mm | - | 1 W/m² | - |
| 1778148129 | 10.56° C | 92% | 1010.5 hPa | 0 mm | - | 1 W/m² | - |
| 1778147827 | 10° C | 92% | 1010.4 hPa | 0 mm | - | 0 W/m² | - |
| 1778147523 | 10° C | 92% | 1010 hPa | 0 mm | - | 0 W/m² | - |
* Rain latest hour (hover to see other rain measurements)
** Current wind speed in m/s (hover to see current wind gust speed)